aviador You're here:

KMPO Decoded Metar

MT. POCONO in PA, USA
Report Time2018-05-27 04:53:00
UTC Time2018-05-27 05:19:24
Flight Rules vfr VFR
WindCalm
Visibility9999 m
Phenomena:N/A
Clouds:Few 060 Hf
Broken 090 Hf
Overcast 100 Hf
Expected CloudBase > 400 ft AGL from Temp-Dew spread
Ceiling9,000 ft
Temp18°C (ISA +7)
Dew Point17°C (94% RH)
QNH1014 hPa
Density Alt2,917 ft
Elevation1,893 ft
Report Wrong Elevation
Raw Report
KMPO 270453Z AUTO 00000KT 10SM FEW060 BKN090 OVC100 18/17 A2995
RMK AO2 LTG DSNT W RAE04 SLP129 P0000 T01780167 402780161=

Extra information for KMPO:More info

Metar Taf Metar & Taf Last 4 Metars F.Rules Stats Wind Profile Meteogram Temp Stats Airport Information Weather charts Add Link Nearby VenuesMetar ALERT Operation Metar Decoded Social comments

AIRNAV info for KMPO